createdAt,value
2022-10-22T00:02:08.053Z,13.10
2022-10-22T00:04:35.776Z,13.20
2022-10-22T00:07:02.627Z,13.20
2022-10-22T00:09:29.302Z,13.20
2022-10-22T00:11:56.116Z,13.30
2022-10-22T00:14:22.843Z,13.20
2022-10-22T00:16:49.591Z,13.20
2022-10-22T00:19:16.569Z,13.20
2022-10-22T00:21:43.284Z,13.10
2022-10-22T00:24:10.015Z,13.10
2022-10-22T00:26:36.725Z,13.10
2022-10-22T00:29:03.481Z,13.10
2022-10-22T00:31:30.214Z,13.10
2022-10-22T00:33:56.920Z,13.10
2022-10-22T00:36:23.644Z,13.10
2022-10-22T00:38:50.356Z,13.10
2022-10-22T00:41:17.307Z,13.10
2022-10-22T00:44:00.101Z,13.10
2022-10-22T00:46:27.098Z,13.10
2022-10-22T00:48:56.630Z,13.20
2022-10-22T00:51:27.767Z,13.20
2022-10-22T00:53:59.720Z,13.10
2022-10-22T00:56:27.000Z,13.20
2022-10-22T00:58:57.493Z,13.20
2022-10-22T01:01:28.053Z,13.10
2022-10-22T01:03:55.495Z,13.00
2022-10-22T01:06:26.879Z,13.00
2022-10-22T01:09:15.284Z,13.00
2022-10-22T01:12:00.903Z,13.00
2022-10-22T01:14:55.105Z,13.00
2022-10-22T01:18:11.041Z,13.00
2022-10-22T01:21:14.482Z,12.90
2022-10-22T01:23:47.275Z,12.90
2022-10-22T01:26:17.066Z,12.90
2022-10-22T01:29:00.367Z,12.90
2022-10-22T01:31:31.740Z,13.00
2022-10-22T01:34:00.474Z,13.00
2022-10-22T01:36:30.907Z,13.00
2022-10-22T01:38:59.370Z,13.00
2022-10-22T01:41:28.962Z,13.00
2022-10-22T01:43:55.948Z,12.90
2022-10-22T01:46:24.880Z,13.00
2022-10-22T01:49:35.654Z,13.00
2022-10-22T09:33:59.396Z,14.30
2022-10-22T09:36:29.812Z,14.40
2022-10-22T09:38:57.234Z,14.60
2022-10-22T09:41:27.427Z,14.90
2022-10-22T09:43:54.157Z,15.00
2022-10-22T09:46:24.663Z,15.10
2022-10-22T09:49:11.253Z,15.10
2022-10-22T09:51:49.501Z,15.20
2022-10-22T09:54:26.651Z,15.30
2022-10-22T09:57:03.079Z,15.30
2022-10-22T09:59:41.273Z,15.30
2022-10-22T10:02:26.673Z,15.40
2022-10-22T10:05:04.867Z,15.40
2022-10-22T10:07:33.774Z,15.30
2022-10-22T10:10:00.533Z,15.30
2022-10-22T10:12:34.256Z,15.40
2022-10-22T10:15:20.282Z,15.50
2022-10-22T10:17:54.554Z,15.60
2022-10-22T10:20:40.947Z,15.70
2022-10-22T10:23:26.097Z,15.70
2022-10-22T10:26:09.706Z,15.90
2022-10-22T10:29:04.352Z,16.10
2022-10-22T10:31:36.879Z,16.00
2022-10-22T10:34:12.198Z,16.00
2022-10-22T10:37:04.851Z,16.10
2022-10-22T10:39:37.354Z,16.10
2022-10-22T10:42:18.673Z,16.10
2022-10-22T10:45:15.078Z,16.30
2022-10-22T10:47:47.656Z,16.30
2022-10-22T10:50:33.689Z,16.40
2022-10-22T10:53:51.345Z,16.50
2022-10-22T10:56:39.467Z,16.70
2022-10-22T10:59:22.300Z,16.70
2022-10-22T11:02:03.161Z,16.80
2022-10-22T11:04:53.302Z,16.90
2022-10-22T11:07:34.751Z,17.00
2022-10-22T11:10:19.505Z,17.10
2022-10-22T11:12:51.361Z,17.10
2022-10-22T11:15:21.026Z,17.20
2022-10-22T11:17:49.789Z,17.20
2022-10-22T11:20:22.131Z,17.20
2022-10-22T11:23:21.528Z,17.20
2022-10-22T11:25:50.013Z,17.40
2022-10-22T11:28:16.684Z,17.50
2022-10-22T11:30:47.230Z,17.40
2022-10-22T11:33:18.802Z,17.60
2022-10-22T11:35:47.311Z,17.70
2022-10-22T11:38:17.442Z,17.90
2022-10-22T11:41:05.466Z,17.80
2022-10-22T11:43:51.842Z,17.70
2022-10-22T11:46:18.458Z,17.50
2022-10-22T11:49:00.355Z,17.50
2022-10-22T11:51:38.374Z,17.60
2022-10-22T11:54:42.541Z,17.40
2022-10-22T11:57:15.404Z,17.30
2022-10-22T12:00:01.498Z,17.20
2022-10-22T12:02:28.213Z,17.30
2022-10-22T12:05:34.026Z,17.50
2022-10-22T12:08:17.545Z,17.50
2022-10-22T12:11:07.162Z,17.70
2022-10-22T12:13:58.750Z,17.70
2022-10-22T12:16:56.124Z,17.90
2022-10-22T12:19:22.641Z,17.70
2022-10-22T12:21:55.753Z,17.30
2022-10-22T12:24:24.454Z,17.20
2022-10-22T12:26:52.631Z,17.10
2022-10-22T12:29:23.658Z,17.20
2022-10-22T12:31:50.514Z,17.30
2022-10-22T12:34:23.671Z,17.40
2022-10-22T12:36:52.414Z,17.60
2022-10-22T12:39:29.999Z,17.60
2022-10-22T12:41:56.729Z,17.70
2022-10-22T12:44:23.528Z,17.70
2022-10-22T12:46:54.451Z,17.90
2022-10-22T12:49:31.114Z,18.00
2022-10-22T12:52:05.042Z,18.00
2022-10-22T12:54:33.347Z,18.00
2022-10-22T12:57:00.995Z,18.00
2022-10-22T12:59:36.924Z,17.90
2022-10-22T13:02:24.299Z,17.70
2022-10-22T13:05:16.278Z,17.70
2022-10-22T13:07:47.317Z,17.60
2022-10-22T13:10:23.220Z,17.40
2022-10-22T13:12:54.358Z,17.20
2022-10-22T13:15:22.797Z,16.90
2022-10-22T13:17:52.657Z,16.90
2022-10-22T13:20:23.516Z,16.70
2022-10-22T13:23:02.680Z,16.70
2022-10-22T13:25:33.895Z,16.60
2022-10-22T13:28:20.226Z,16.80
2022-10-22T13:31:17.143Z,16.90
2022-10-22T13:33:46.249Z,17.10
2022-10-22T13:36:15.521Z,17.20
2022-10-22T13:38:43.135Z,17.30
2022-10-22T13:41:22.642Z,17.30
2022-10-22T13:43:49.644Z,17.50
2022-10-22T13:46:16.824Z,17.50
2022-10-22T13:48:44.608Z,17.60
2022-10-22T13:51:20.303Z,17.50
2022-10-22T13:53:48.996Z,17.70
2022-10-22T13:56:17.676Z,17.70
2022-10-22T13:58:45.945Z,17.80
2022-10-22T14:01:24.930Z,17.80
2022-10-22T14:03:54.236Z,17.80
2022-10-22T14:06:22.562Z,17.80
2022-10-22T14:08:55.028Z,17.90
2022-10-22T14:11:21.933Z,17.70
2022-10-22T14:13:48.624Z,17.60
2022-10-22T14:16:21.912Z,17.60
2022-10-22T14:18:49.742Z,17.70
2022-10-22T14:21:17.395Z,17.70
2022-10-22T14:23:46.624Z,17.60
2022-10-22T14:26:23.075Z,17.50
2022-10-22T14:29:08.699Z,17.40
2022-10-22T14:31:38.241Z,17.50
2022-10-22T14:34:04.891Z,17.50
2022-10-22T14:36:31.587Z,17.50
2022-10-22T14:38:58.267Z,17.50
2022-10-22T14:41:28.488Z,17.60
2022-10-22T14:43:55.812Z,17.70
2022-10-22T14:46:22.728Z,17.60
2022-10-22T14:48:49.551Z,17.70
2022-10-22T14:51:20.896Z,17.50
2022-10-22T14:53:48.065Z,17.40
2022-10-22T14:56:17.052Z,17.40
2022-10-22T14:58:43.811Z,17.30
2022-10-22T15:01:10.559Z,17.30
2022-10-22T15:03:37.332Z,17.20
2022-10-22T15:06:04.340Z,17.30
2022-10-22T15:08:31.082Z,17.20
2022-10-22T15:11:06.259Z,17.20
2022-10-22T15:13:33.792Z,17.10
2022-10-22T15:16:01.590Z,17.10
2022-10-22T15:18:28.709Z,17.00
2022-10-22T15:21:00.539Z,17.00
2022-10-22T15:23:28.202Z,17.00
2022-10-22T15:25:55.367Z,17.00
2022-10-22T15:28:22.251Z,17.00
2022-10-22T15:30:53.956Z,17.00
2022-10-22T15:33:21.281Z,16.90
2022-10-22T15:35:48.030Z,17.00
2022-10-22T15:38:14.894Z,17.00
2022-10-22T15:40:41.587Z,17.00
2022-10-22T15:43:08.307Z,16.70
2022-10-22T15:45:35.150Z,16.60
2022-10-22T15:48:01.983Z,16.60
2022-10-22T15:50:28.738Z,16.60
2022-10-22T15:52:56.332Z,16.60
2022-10-22T15:55:23.051Z,16.50
2022-10-22T15:57:54.781Z,16.40
2022-10-22T16:00:22.767Z,16.40
2022-10-22T16:02:49.885Z,16.40
2022-10-22T16:05:16.615Z,16.30
2022-10-22T16:07:43.713Z,16.20
2022-10-22T16:10:12.784Z,16.10
2022-10-22T16:12:41.278Z,16.10
2022-10-22T16:15:10.305Z,16.00
2022-10-22T16:17:37.111Z,15.90
2022-10-22T16:20:04.159Z,15.80
2022-10-22T16:22:30.914Z,15.60
2022-10-22T16:24:57.599Z,15.50
2022-10-22T16:27:24.286Z,15.20
2022-10-22T16:29:50.965Z,14.90
2022-10-22T16:32:17.879Z,14.70
2022-10-22T16:34:44.632Z,14.50
2022-10-22T16:37:11.401Z,14.50
2022-10-22T16:39:38.319Z,14.40
2022-10-22T16:42:05.498Z,14.30
2022-10-22T16:44:32.205Z,14.10
2022-10-22T16:46:59.101Z,14.10
2022-10-22T16:49:25.819Z,14.00
2022-10-22T16:51:52.549Z,14.00
2022-10-22T16:54:21.675Z,13.80
2022-10-22T16:56:48.411Z,13.40
2022-10-22T16:59:15.130Z,13.10
2022-10-22T17:01:41.904Z,12.80
2022-10-22T17:04:09.399Z,12.70
2022-10-22T17:06:36.148Z,12.60
2022-10-22T17:09:04.049Z,12.50
2022-10-22T17:11:35.198Z,12.40
2022-10-22T17:14:03.911Z,12.10
2022-10-22T17:16:30.759Z,12.10
2022-10-22T17:18:58.282Z,11.90
2022-10-22T17:24:06.217Z,11.70
2022-10-22T17:33:40.361Z,11.40
